createdAt,value
2022-12-22T00:00:11.222Z,19.92
2022-12-22T00:03:00.320Z,21.27
2022-12-22T00:05:45.709Z,17.30
2022-12-22T00:08:31.409Z,17.43
2022-12-22T00:11:17.654Z,18.58
2022-12-22T00:16:50.792Z,19.52
2022-12-22T00:19:36.906Z,16.55
2022-12-22T00:22:33.191Z,18.45
2022-12-22T00:25:19.101Z,22.13
2022-12-22T00:28:04.757Z,17.30
2022-12-22T00:30:50.417Z,17.13
2022-12-22T00:33:37.604Z,18.65
2022-12-22T00:36:23.572Z,18.58
2022-12-22T00:39:09.326Z,18.48
2022-12-22T00:41:54.846Z,20.10
2022-12-22T00:44:40.454Z,18.38
2022-12-22T00:47:56.729Z,20.23
2022-12-22T00:50:44.711Z,18.15
2022-12-22T00:53:30.320Z,21.88
2022-12-22T00:56:16.183Z,22.95
2022-12-22T00:59:01.627Z,18.88
2022-12-22T01:01:47.364Z,18.85
2022-12-22T01:04:33.058Z,15.73
2022-12-22T01:07:18.753Z,15.45
2022-12-22T01:10:08.205Z,17.73
2022-12-22T01:12:54.859Z,16.17
2022-12-22T01:15:40.477Z,16.10
2022-12-22T01:18:26.140Z,18.75
2022-12-22T01:21:13.005Z,18.15
2022-12-22T01:23:58.405Z,16.13
2022-12-22T01:26:44.024Z,14.73
2022-12-22T01:29:29.531Z,16.05
2022-12-22T01:32:15.271Z,14.93
2022-12-22T01:35:01.532Z,16.70
2022-12-22T01:40:37.030Z,20.13
2022-12-22T01:43:34.623Z,15.73
2022-12-22T01:46:36.953Z,14.90
2022-12-22T01:49:22.842Z,17.05
2022-12-22T01:52:08.715Z,15.77
2022-12-22T01:54:54.434Z,17.80
2022-12-22T01:57:40.105Z,16.77
2022-12-22T02:00:26.243Z,16.17
2022-12-22T02:06:06.044Z,16.35
2022-12-22T02:08:53.041Z,18.48
2022-12-22T02:11:57.046Z,15.85
2022-12-22T02:14:47.755Z,13.30
2022-12-22T02:17:44.334Z,16.10
2022-12-22T02:20:44.972Z,14.38
2022-12-22T02:23:33.722Z,17.48
2022-12-22T02:26:39.800Z,15.10
2022-12-22T02:29:25.837Z,17.55
2022-12-22T02:32:11.557Z,16.27
2022-12-22T02:34:57.737Z,14.70
2022-12-22T02:40:29.059Z,18.52
2022-12-22T02:43:30.369Z,15.73
2022-12-22T02:46:22.060Z,14.38
2022-12-22T02:49:14.399Z,13.93
2022-12-22T02:52:03.091Z,17.50
2022-12-22T02:54:50.237Z,16.35
2022-12-22T02:57:36.889Z,27.13
2022-12-22T03:00:23.988Z,23.02
2022-12-22T03:03:09.999Z,27.88
2022-12-22T03:05:55.737Z,22.77
2022-12-22T03:08:41.427Z,24.33
2022-12-22T03:11:27.182Z,23.42
2022-12-22T03:14:12.935Z,19.88
2022-12-22T03:16:58.491Z,20.02
2022-12-22T03:19:44.146Z,19.65
2022-12-22T03:22:29.594Z,19.17
2022-12-22T03:25:15.444Z,18.48
2022-12-22T03:27:42.461Z,15.43
2022-12-22T03:30:09.797Z,15.27
2022-12-22T03:32:36.985Z,15.00
2022-12-22T03:35:04.177Z,20.50
2022-12-22T03:37:31.255Z,20.35
2022-12-22T03:39:58.385Z,19.73
2022-12-22T03:42:43.796Z,18.55
2022-12-22T03:45:29.342Z,16.35
2022-12-22T03:47:56.487Z,23.58
2022-12-22T03:50:23.663Z,23.55
2022-12-22T03:52:50.798Z,20.35
2022-12-22T03:55:17.928Z,24.00
2022-12-22T03:57:44.989Z,23.58
2022-12-22T04:00:12.293Z,22.38
2022-12-22T04:02:39.367Z,22.92
2022-12-22T04:05:06.721Z,20.33
2022-12-22T04:07:33.873Z,20.20
2022-12-22T04:10:19.821Z,20.63
2022-12-22T04:12:56.153Z,23.40
2022-12-22T04:15:27.792Z,22.30
2022-12-22T04:17:54.857Z,19.98
2022-12-22T04:20:22.649Z,20.67
2022-12-22T04:22:50.059Z,17.20
2022-12-22T04:25:17.230Z,20.40
2022-12-22T04:27:44.382Z,22.02
2022-12-22T04:30:12.226Z,20.45
2022-12-22T04:32:39.289Z,20.95
2022-12-22T04:35:06.980Z,21.17
2022-12-22T04:37:34.064Z,21.20
2022-12-22T04:40:01.290Z,21.85
2022-12-22T04:42:28.521Z,23.67
2022-12-22T04:44:55.633Z,18.98
2022-12-22T04:47:22.770Z,17.60
2022-12-22T04:49:49.814Z,17.98
2022-12-22T04:52:16.972Z,24.80
2022-12-22T04:54:44.137Z,17.73
2022-12-22T04:57:11.314Z,19.30
2022-12-22T04:59:38.414Z,18.15
2022-12-22T05:02:05.697Z,14.00
2022-12-22T05:04:35.109Z,13.32
2022-12-22T05:07:02.244Z,19.77
2022-12-22T05:09:29.324Z,16.13
2022-12-22T05:11:56.329Z,12.98
2022-12-22T05:14:23.542Z,13.85
2022-12-22T05:16:50.787Z,13.18
2022-12-22T05:19:17.962Z,17.50
2022-12-22T05:21:45.867Z,13.90
2022-12-22T05:24:13.372Z,14.48
2022-12-22T05:26:40.477Z,13.15
2022-12-22T05:29:07.688Z,14.60
2022-12-22T05:31:35.399Z,12.23
2022-12-22T05:34:02.569Z,16.67
2022-12-22T05:36:29.770Z,17.08
2022-12-22T05:38:56.929Z,19.60
2022-12-22T05:41:24.123Z,14.65
2022-12-22T05:43:51.242Z,12.38
2022-12-22T05:46:18.492Z,14.88
2022-12-22T05:48:45.576Z,18.73
2022-12-22T05:51:12.653Z,14.38
2022-12-22T05:53:39.876Z,14.90
2022-12-22T05:56:07.416Z,11.48
2022-12-22T05:58:35.571Z,12.80
2022-12-22T06:01:02.758Z,14.35
2022-12-22T06:03:30.256Z,14.13
2022-12-22T06:05:58.105Z,12.88
2022-12-22T06:08:25.534Z,16.45
2022-12-22T06:10:54.635Z,14.30
2022-12-22T06:13:21.965Z,14.30
2022-12-22T06:15:49.634Z,13.65
2022-12-22T06:18:16.911Z,14.90
2022-12-22T06:20:45.774Z,16.73
2022-12-22T06:23:12.934Z,16.25
2022-12-22T06:25:39.938Z,15.70
2022-12-22T06:28:07.143Z,14.13
2022-12-22T06:30:35.356Z,14.43
2022-12-22T06:33:05.547Z,17.15
2022-12-22T06:35:32.715Z,16.13
2022-12-22T06:37:59.868Z,14.13
2022-12-22T06:40:27.051Z,15.85
2022-12-22T06:43:10.058Z,11.70
2022-12-22T06:45:38.773Z,17.30
2022-12-22T06:48:07.111Z,15.82
2022-12-22T06:50:35.340Z,14.40
2022-12-22T06:53:03.334Z,23.42
2022-12-22T06:55:30.567Z,15.50
2022-12-22T06:57:57.710Z,17.63
2022-12-22T07:00:25.310Z,22.13
2022-12-22T07:02:52.711Z,19.48
2022-12-22T07:05:19.990Z,17.00
2022-12-22T07:07:47.171Z,16.17
2022-12-22T07:10:14.312Z,17.88
2022-12-22T07:12:41.791Z,17.20
2022-12-22T07:15:09.524Z,19.13
2022-12-22T07:17:36.557Z,25.25
2022-12-22T07:20:03.715Z,17.67
2022-12-22T07:22:31.330Z,15.95
2022-12-22T07:24:59.083Z,15.82
2022-12-22T07:27:26.275Z,14.82
2022-12-22T07:29:53.420Z,19.52
2022-12-22T07:32:20.564Z,22.83
2022-12-22T07:34:47.714Z,19.33
2022-12-22T07:37:14.869Z,23.75
2022-12-22T07:39:44.392Z,20.38
2022-12-22T07:42:30.556Z,21.83
2022-12-22T07:44:57.785Z,19.92
2022-12-22T07:47:28.680Z,18.67
2022-12-22T07:50:19.077Z,16.42
2022-12-22T07:52:46.174Z,18.42
2022-12-22T07:55:14.499Z,20.52
2022-12-22T07:57:41.578Z,12.73
2022-12-22T08:00:10.507Z,15.02
2022-12-22T08:02:41.002Z,18.55
2022-12-22T08:05:08.878Z,13.10
2022-12-22T08:07:36.369Z,18.45
2022-12-22T08:10:03.493Z,23.33
2022-12-22T08:12:32.920Z,21.30
2022-12-22T08:15:00.264Z,19.85
2022-12-22T08:17:28.062Z,18.77
2022-12-22T08:19:55.421Z,19.75
2022-12-22T08:22:25.779Z,23.70
2022-12-22T08:24:53.752Z,44.88
2022-12-22T08:27:42.752Z,39.10
2022-12-22T08:30:10.541Z,41.20
2022-12-22T08:32:40.754Z,37.80
2022-12-22T08:35:09.381Z,45.97
2022-12-22T08:37:41.650Z,46.92
2022-12-22T08:40:10.816Z,30.42
2022-12-22T08:42:38.423Z,35.83
2022-12-22T08:45:06.250Z,33.63
2022-12-22T08:47:33.458Z,26.50
2022-12-22T08:50:00.603Z,33.22
2022-12-22T08:52:27.805Z,22.60
2022-12-22T08:54:54.944Z,29.58
2022-12-22T08:57:21.985Z,32.95
2022-12-22T08:59:49.091Z,32.08
2022-12-22T09:02:16.460Z,17.05
2022-12-22T09:04:43.919Z,21.70
2022-12-22T09:07:11.843Z,17.27
2022-12-22T09:09:38.947Z,18.58
2022-12-22T09:12:06.318Z,27.63
2022-12-22T09:14:34.116Z,24.25
2022-12-22T09:17:01.498Z,34.90
2022-12-22T09:19:28.683Z,35.25
2022-12-22T09:21:56.176Z,35.92
2022-12-22T09:24:23.290Z,27.63
2022-12-22T09:26:50.438Z,51.72
2022-12-22T09:29:17.637Z,40.75
2022-12-22T09:31:45.217Z,44.55
2022-12-22T09:34:17.609Z,32.80
2022-12-22T09:36:45.688Z,34.58
2022-12-22T09:39:13.024Z,38.33
2022-12-22T09:41:45.497Z,44.72
2022-12-22T09:44:32.792Z,49.92
2022-12-22T09:47:04.873Z,52.03
2022-12-22T09:49:32.097Z,54.17
2022-12-22T09:52:01.475Z,53.40
2022-12-22T09:54:28.683Z,66.95
2022-12-22T09:56:56.284Z,55.95
2022-12-22T09:59:26.570Z,74.25
2022-12-22T10:02:20.989Z,56.63
2022-12-22T10:05:21.080Z,59.83
2022-12-22T10:07:48.056Z,64.70
2022-12-22T10:10:21.253Z,69.00
2022-12-22T10:12:49.895Z,61.97
2022-12-22T10:15:21.691Z,65.88
2022-12-22T10:17:53.038Z,65.28
2022-12-22T10:20:28.099Z,68.22
2022-12-22T10:22:59.287Z,59.65
2022-12-22T10:25:26.900Z,61.28
2022-12-22T10:27:55.569Z,50.47
2022-12-22T10:30:22.909Z,55.83
2022-12-22T10:33:03.823Z,41.60
2022-12-22T10:35:39.879Z,37.08
2022-12-22T10:38:21.243Z,38.38
2022-12-22T10:40:52.209Z,47.45
2022-12-22T10:43:25.262Z,37.72
2022-12-22T10:45:53.438Z,29.60
2022-12-22T10:48:28.500Z,31.83
2022-12-22T10:50:56.984Z,32.22
2022-12-22T10:53:38.287Z,32.75
2022-12-22T10:56:06.044Z,34.25
2022-12-22T10:58:46.453Z,30.88
2022-12-22T11:01:14.164Z,35.63
2022-12-22T11:03:41.338Z,32.72
2022-12-22T11:06:12.873Z,25.17
2022-12-22T11:08:39.960Z,29.20
2022-12-22T11:11:13.252Z,33.45
2022-12-22T11:14:06.276Z,28.50
2022-12-22T11:16:39.141Z,21.77
2022-12-22T11:19:33.806Z,27.40
2022-12-22T11:22:07.192Z,24.55
2022-12-22T11:24:40.976Z,20.77
2022-12-22T11:27:18.270Z,25.83
2022-12-22T11:29:53.774Z,29.48
2022-12-22T11:32:31.103Z,32.38
2022-12-22T11:35:16.563Z,26.88
2022-12-22T11:37:51.907Z,30.13
2022-12-22T11:40:39.277Z,34.08
2022-12-22T11:43:18.327Z,29.50
2022-12-22T11:45:51.682Z,31.77
2022-12-22T11:48:34.012Z,27.95
2022-12-22T11:51:18.665Z,31.02
2022-12-22T11:54:11.863Z,24.55
2022-12-22T11:56:41.312Z,35.50
2022-12-22T11:59:27.123Z,25.23
2022-12-22T12:02:03.466Z,27.52
2022-12-22T12:05:04.186Z,26.02
2022-12-22T12:07:37.197Z,22.38
2022-12-22T12:10:23.221Z,24.02
2022-12-22T12:15:20.522Z,27.10
2022-12-22T12:17:59.816Z,27.48
2022-12-22T12:20:45.319Z,31.50
2022-12-22T12:23:22.384Z,17.30
2022-12-22T12:25:52.394Z,20.35
2022-12-22T12:28:37.836Z,23.52
2022-12-22T12:31:05.494Z,26.20
2022-12-22T12:33:47.767Z,21.90
2022-12-22T12:36:21.081Z,25.98
2022-12-22T12:41:41.439Z,26.48
2022-12-22T12:44:13.516Z,28.63
2022-12-22T12:46:53.271Z,29.17
2022-12-22T12:49:35.595Z,36.05
2022-12-22T12:52:09.746Z,34.72
2022-12-22T12:54:38.491Z,37.50
2022-12-22T12:57:08.447Z,40.72
2022-12-22T12:59:41.569Z,33.72
2022-12-22T13:02:27.546Z,41.53
2022-12-22T13:05:01.263Z,39.00
2022-12-22T13:07:47.178Z,41.47
2022-12-22T13:10:25.451Z,42.63
2022-12-22T13:12:54.199Z,40.25
2022-12-22T13:15:32.747Z,44.33
2022-12-22T13:18:00.760Z,34.53
2022-12-22T13:20:31.105Z,35.30
2022-12-22T13:22:59.895Z,39.00
2022-12-22T13:25:48.523Z,37.05
2022-12-22T13:28:17.301Z,35.92
2022-12-22T13:31:02.879Z,29.83
2022-12-22T13:33:32.258Z,40.28
2022-12-22T13:35:59.637Z,40.55
2022-12-22T13:38:34.539Z,38.75
2022-12-22T13:41:05.482Z,39.70
2022-12-22T13:43:33.555Z,33.00
2022-12-22T13:46:02.575Z,29.25
2022-12-22T13:48:44.577Z,34.95
2022-12-22T13:51:24.307Z,29.30
2022-12-22T13:54:10.428Z,29.15
2022-12-22T13:56:57.575Z,24.13
2022-12-22T13:59:24.783Z,23.05
2022-12-22T14:01:52.708Z,29.83
2022-12-22T14:04:20.124Z,32.28
2022-12-22T14:06:47.401Z,40.20
2022-12-22T14:09:27.333Z,34.47
2022-12-22T14:12:03.364Z,44.60
2022-12-22T14:14:32.204Z,42.67
2022-12-22T14:17:01.007Z,35.45
2022-12-22T14:19:31.328Z,32.50
2022-12-22T14:22:01.184Z,34.80
2022-12-22T14:24:33.199Z,31.45
2022-12-22T14:27:04.519Z,28.88
2022-12-22T14:29:31.812Z,34.60
2022-12-22T14:32:00.221Z,34.83
2022-12-22T14:34:36.183Z,34.17
2022-12-22T14:37:03.301Z,29.45
2022-12-22T14:39:32.117Z,28.75
2022-12-22T14:42:01.290Z,23.77
2022-12-22T14:44:28.493Z,30.45
2022-12-22T14:47:01.680Z,28.80
2022-12-22T14:49:28.934Z,36.60
2022-12-22T14:52:01.140Z,32.80
2022-12-22T14:54:28.902Z,28.92
2022-12-22T14:57:00.909Z,39.35
2022-12-22T14:59:29.062Z,34.50
2022-12-22T15:02:00.585Z,38.70
2022-12-22T15:04:28.073Z,58.10
2022-12-22T15:07:05.404Z,50.38
2022-12-22T15:10:14.604Z,57.60
2022-12-22T15:12:20.275Z,57.25
2022-12-22T15:14:49.197Z,58.33
2022-12-22T15:17:20.958Z,58.83
2022-12-22T15:19:48.079Z,58.40
2022-12-22T15:22:15.253Z,55.65
2022-12-22T15:24:42.382Z,57.28
2022-12-22T15:27:09.537Z,60.70
2022-12-22T15:29:36.900Z,57.38
2022-12-22T15:32:04.218Z,66.22
2022-12-22T15:34:32.380Z,62.65
2022-12-22T15:36:59.636Z,93.78
2022-12-22T15:39:26.853Z,78.78
2022-12-22T15:41:54.959Z,85.43
2022-12-22T15:44:22.716Z,88.80
2022-12-22T15:46:59.381Z,63.90
2022-12-22T15:49:27.963Z,71.35
2022-12-22T15:51:56.557Z,75.25
2022-12-22T15:54:24.658Z,81.22
2022-12-22T15:56:52.673Z,76.13
2022-12-22T15:59:29.136Z,77.55
2022-12-22T16:02:01.814Z,71.45
2022-12-22T16:04:29.767Z,70.03
2022-12-22T16:06:57.448Z,69.63
2022-12-22T16:09:26.286Z,61.58
2022-12-22T16:11:53.529Z,71.53
2022-12-22T16:14:21.063Z,76.00
2022-12-22T16:16:48.670Z,74.88
2022-12-22T16:19:17.164Z,72.53
2022-12-22T16:21:48.554Z,74.57
2022-12-22T16:24:27.075Z,69.22
2022-12-22T16:26:57.099Z,80.82
2022-12-22T16:29:25.271Z,82.75
2022-12-22T16:31:53.136Z,69.47
2022-12-22T16:34:20.595Z,73.43
2022-12-22T16:36:47.750Z,64.90
2022-12-22T16:39:15.829Z,63.83
2022-12-22T16:41:44.132Z,61.20
2022-12-22T16:47:03.834Z,71.32
2022-12-22T16:49:31.098Z,63.78
2022-12-22T16:51:58.671Z,65.25
2022-12-22T16:54:26.243Z,74.60
2022-12-22T16:56:53.303Z,65.05
2022-12-22T16:59:20.579Z,63.35
2022-12-22T17:01:52.751Z,65.68
2022-12-22T17:04:20.057Z,73.10
2022-12-22T17:06:48.248Z,60.42
2022-12-22T17:09:19.394Z,72.15
2022-12-22T17:11:46.952Z,59.83
2022-12-22T17:14:24.457Z,55.65
2022-12-22T17:16:53.813Z,60.85
2022-12-22T17:19:21.074Z,55.15
2022-12-22T17:21:48.318Z,61.08
2022-12-22T17:24:18.136Z,63.65
2022-12-22T17:26:48.068Z,50.75
2022-12-22T17:29:25.848Z,57.35
2022-12-22T17:31:56.977Z,90.60
2022-12-22T17:34:24.287Z,127.93
2022-12-22T17:36:51.646Z,128.35
2022-12-22T17:39:20.349Z,147.63
2022-12-22T17:41:52.230Z,150.57
2022-12-22T17:44:24.528Z,141.30
2022-12-22T17:46:51.746Z,141.35
2022-12-22T17:49:20.274Z,140.25
2022-12-22T17:51:47.709Z,124.88
2022-12-22T17:54:24.038Z,130.95
2022-12-22T17:56:51.497Z,130.35
2022-12-22T17:59:18.697Z,151.00
2022-12-22T18:01:46.109Z,94.22
2022-12-22T18:04:13.828Z,64.65
2022-12-22T18:06:41.933Z,75.20
2022-12-22T18:09:15.754Z,55.10
2022-12-22T18:11:46.099Z,48.58
2022-12-22T18:14:14.619Z,57.08
2022-12-22T18:16:43.321Z,44.95
2022-12-22T18:19:10.742Z,50.85
2022-12-22T18:21:38.091Z,48.42
2022-12-22T18:24:05.334Z,44.47
2022-12-22T18:26:32.865Z,48.65
2022-12-22T18:29:00.209Z,46.72
2022-12-22T18:31:27.326Z,51.45
2022-12-22T18:33:54.514Z,52.00
2022-12-22T18:36:32.535Z,47.58
2022-12-22T18:39:00.648Z,55.55
2022-12-22T18:41:29.511Z,48.22
2022-12-22T18:43:56.936Z,47.60
2022-12-22T18:46:24.489Z,40.35
2022-12-22T18:48:51.707Z,42.60
2022-12-22T18:51:20.490Z,42.00
2022-12-22T18:53:47.982Z,39.65
2022-12-22T18:56:15.280Z,40.20
2022-12-22T18:58:42.803Z,35.33
2022-12-22T19:01:23.458Z,39.33
2022-12-22T19:03:54.644Z,32.30
2022-12-22T19:06:22.285Z,38.13
2022-12-22T19:08:49.838Z,26.88
2022-12-22T19:11:18.604Z,34.15
2022-12-22T19:13:48.699Z,28.88
2022-12-22T19:16:20.924Z,34.55
2022-12-22T19:18:48.099Z,32.92
2022-12-22T19:21:18.663Z,30.05
2022-12-22T19:23:45.985Z,35.75
2022-12-22T19:26:23.374Z,32.65
2022-12-22T19:28:52.774Z,34.10
2022-12-22T19:31:25.315Z,42.83
2022-12-22T19:33:53.030Z,42.75
2022-12-22T19:36:27.515Z,40.10
2022-12-22T19:39:05.828Z,37.78
2022-12-22T19:41:33.334Z,31.95
2022-12-22T19:44:00.890Z,31.67
2022-12-22T19:46:29.687Z,47.25
2022-12-22T19:48:57.290Z,39.30
2022-12-22T19:51:24.448Z,36.33
2022-12-22T19:53:51.517Z,41.08
2022-12-22T19:56:26.671Z,39.47
2022-12-22T19:58:54.796Z,35.75
2022-12-22T20:01:22.227Z,39.22
2022-12-22T20:03:49.327Z,36.70
2022-12-22T20:06:17.855Z,46.25
2022-12-22T20:08:45.154Z,39.42
2022-12-22T20:11:17.252Z,39.65
2022-12-22T20:13:44.685Z,35.30
2022-12-22T20:16:12.999Z,51.47
2022-12-22T20:18:40.524Z,48.80
2022-12-22T20:21:11.188Z,42.67
2022-12-22T20:23:39.293Z,39.50
2022-12-22T20:26:08.555Z,39.85
2022-12-22T20:28:37.280Z,38.35
2022-12-22T20:31:05.128Z,37.15
2022-12-22T20:33:32.667Z,42.35
2022-12-22T20:36:00.644Z,42.80
2022-12-22T20:38:27.677Z,36.65
2022-12-22T20:40:55.239Z,36.67
2022-12-22T20:43:23.715Z,40.28
2022-12-22T20:45:52.198Z,38.05
2022-12-22T20:48:23.749Z,36.42
2022-12-22T20:50:51.063Z,37.72
2022-12-22T20:53:19.465Z,38.33
2022-12-22T20:55:46.934Z,40.60
2022-12-22T20:58:27.795Z,41.05
2022-12-22T21:00:59.117Z,31.17
2022-12-22T21:03:27.094Z,37.92
2022-12-22T21:05:54.925Z,29.38
2022-12-22T21:08:24.588Z,36.08
2022-12-22T21:10:52.798Z,31.55
2022-12-22T21:13:20.732Z,35.42
2022-12-22T21:15:50.356Z,35.72
2022-12-22T21:18:19.160Z,34.13
2022-12-22T21:20:46.899Z,28.25
2022-12-22T21:23:16.637Z,29.35
2022-12-22T21:25:46.731Z,26.10
2022-12-22T21:28:27.972Z,28.25
2022-12-22T21:30:55.093Z,33.03
2022-12-22T21:33:23.735Z,25.40
2022-12-22T21:35:51.111Z,22.70
2022-12-22T21:38:19.236Z,20.98
2022-12-22T21:40:49.166Z,21.55
2022-12-22T21:43:16.671Z,22.30
2022-12-22T21:45:44.719Z,25.88
2022-12-22T21:48:14.984Z,46.38
2022-12-22T21:50:42.648Z,46.90
2022-12-22T21:53:09.794Z,42.40
2022-12-22T21:55:38.073Z,39.95
2022-12-22T21:58:05.915Z,48.30
2022-12-22T22:00:33.563Z,45.58
2022-12-22T22:03:03.813Z,51.35
2022-12-22T22:05:35.291Z,69.20
2022-12-22T22:08:03.057Z,87.88
2022-12-22T22:10:32.122Z,42.90
2022-12-22T22:12:59.527Z,60.67
2022-12-22T22:15:27.350Z,40.85
2022-12-22T22:17:54.595Z,41.17
2022-12-22T22:20:22.953Z,52.55
2022-12-22T22:22:50.906Z,37.85
2022-12-22T22:25:18.983Z,47.13
2022-12-22T22:27:48.166Z,51.67
2022-12-22T22:30:17.954Z,38.38
2022-12-22T22:32:49.285Z,45.95
2022-12-22T22:35:18.671Z,47.75
2022-12-22T22:37:46.457Z,43.30
2022-12-22T22:40:14.845Z,50.50
2022-12-22T22:42:42.255Z,65.80
2022-12-22T22:45:10.977Z,57.78
2022-12-22T22:47:38.691Z,65.53
2022-12-22T22:50:07.138Z,57.25
2022-12-22T22:52:34.230Z,56.33
2022-12-22T22:55:01.648Z,82.70
2022-12-22T22:57:29.015Z,78.15
2022-12-22T22:59:56.223Z,72.82
2022-12-22T23:02:23.813Z,71.97
2022-12-22T23:04:51.214Z,70.70
2022-12-22T23:07:18.311Z,65.20
2022-12-22T23:09:45.387Z,46.90
2022-12-22T23:12:13.377Z,36.40
2022-12-22T23:14:40.460Z,34.83
2022-12-22T23:17:07.589Z,28.23
2022-12-22T23:19:34.750Z,22.27
2022-12-22T23:22:02.059Z,25.35
2022-12-22T23:24:29.168Z,22.27
2022-12-22T23:26:56.296Z,24.98
2022-12-22T23:29:23.422Z,22.20
2022-12-22T23:31:50.612Z,18.45
2022-12-22T23:34:17.816Z,22.65
2022-12-22T23:36:44.949Z,18.65
2022-12-22T23:39:12.118Z,20.27
2022-12-22T23:41:39.245Z,20.08
2022-12-22T23:44:06.500Z,19.90
2022-12-22T23:46:33.637Z,16.63
2022-12-22T23:49:00.798Z,21.90
2022-12-22T23:51:28.880Z,18.02
2022-12-22T23:53:56.659Z,18.92
2022-12-22T23:56:23.987Z,18.77
2022-12-22T23:58:54.629Z,16.05
